createdAt,value
2019-03-08T00:00:49.243Z,94.30
2019-03-08T00:03:18.612Z,94.90
2019-03-08T00:05:47.961Z,95.20
2019-03-08T00:08:17.261Z,95.40
2019-03-08T00:10:46.698Z,95.90
2019-03-08T00:13:16.059Z,96.60
2019-03-08T00:15:45.364Z,96.30
2019-03-08T00:18:14.665Z,96.80
2019-03-08T00:20:44.351Z,96.40
2019-03-08T00:23:13.717Z,96.30
2019-03-08T00:25:43.642Z,95.80
2019-03-08T00:28:13.697Z,95.60
2019-03-08T00:30:43.133Z,95.20
2019-03-08T00:33:12.581Z,95.30
2019-03-08T00:35:42.213Z,95.60
2019-03-08T00:38:11.510Z,95.50
2019-03-08T00:40:40.873Z,95.80
2019-03-08T00:43:10.228Z,96.00
2019-03-08T00:45:39.528Z,96.10
2019-03-08T00:48:08.857Z,96.20
2019-03-08T00:50:38.229Z,97.10
2019-03-08T00:53:07.818Z,97.80
2019-03-08T00:55:37.629Z,98.10
2019-03-08T00:58:07.025Z,98.60
2019-03-08T01:00:36.734Z,99.50
2019-03-08T01:03:06.554Z,99.90
2019-03-08T01:05:36.491Z,99.90
2019-03-08T01:08:05.740Z,99.90
2019-03-08T01:10:35.383Z,99.90
2019-03-08T01:13:05.073Z,99.90
2019-03-08T01:15:34.471Z,99.90
2019-03-08T01:18:04.172Z,99.90
2019-03-08T01:20:33.999Z,99.90
2019-03-08T01:23:03.430Z,99.90
2019-03-08T01:25:32.723Z,99.90
2019-03-08T01:28:10.883Z,99.90
2019-03-08T01:30:41.844Z,99.90
2019-03-08T01:33:11.817Z,99.90
2019-03-08T01:35:41.268Z,99.90
2019-03-08T01:38:10.893Z,99.90
2019-03-08T01:40:40.234Z,99.90
2019-03-08T01:43:09.689Z,99.90
2019-03-08T01:45:39.309Z,99.90
2019-03-08T01:48:09.079Z,99.90
2019-03-08T01:50:38.441Z,99.90
2019-03-08T01:53:07.748Z,99.90
2019-03-08T01:55:37.083Z,99.90
2019-03-08T01:58:06.445Z,99.90
2019-03-08T02:00:35.811Z,99.90
2019-03-08T02:03:05.788Z,99.90
2019-03-08T02:05:35.531Z,99.90
2019-03-08T02:08:04.977Z,99.90
2019-03-08T02:10:34.414Z,99.90
2019-03-08T02:13:03.969Z,99.90
2019-03-08T02:15:33.539Z,99.90
2019-03-08T02:18:02.841Z,99.90
2019-03-08T02:20:32.458Z,99.90
2019-03-08T02:23:02.077Z,99.90
2019-03-08T02:25:31.681Z,99.90
2019-03-08T02:28:01.036Z,99.90
2019-03-08T02:30:30.707Z,99.90
2019-03-08T02:33:00.007Z,99.90
2019-03-08T02:35:29.340Z,99.90
2019-03-08T02:37:58.759Z,99.90
2019-03-08T02:40:32.356Z,99.90
2019-03-08T02:43:04.739Z,99.90
2019-03-08T02:45:34.027Z,99.90
2019-03-08T02:48:03.386Z,99.90
2019-03-08T02:50:33.080Z,99.90
2019-03-08T02:53:02.718Z,99.90
2019-03-08T02:55:32.479Z,99.90
2019-03-08T02:58:01.833Z,99.90
2019-03-08T03:00:43.806Z,99.90
2019-03-08T03:03:14.032Z,99.90
2019-03-08T03:05:43.395Z,99.90
2019-03-08T03:08:12.892Z,99.90
2019-03-08T03:10:42.362Z,99.90
2019-03-08T03:13:11.639Z,99.90
2019-03-08T03:15:40.975Z,99.90
2019-03-08T03:18:10.329Z,99.90
2019-03-08T03:20:41.605Z,99.90
2019-03-08T03:23:11.289Z,99.90
2019-03-08T03:25:40.884Z,99.90
2019-03-08T03:28:10.216Z,99.90
2019-03-08T03:30:39.517Z,99.90
2019-03-08T03:33:08.867Z,99.90
2019-03-08T03:35:38.178Z,99.90
2019-03-08T03:38:07.528Z,99.90
2019-03-08T03:40:36.969Z,99.90
2019-03-08T03:43:07.839Z,99.90
2019-03-08T03:45:37.197Z,99.90
2019-03-08T03:48:06.986Z,99.90
2019-03-08T03:50:36.282Z,99.90
2019-03-08T03:53:05.581Z,99.90
2019-03-08T03:55:37.923Z,99.90
2019-03-08T03:58:07.254Z,99.90
2019-03-08T04:00:37.034Z,99.90
2019-03-08T04:03:06.480Z,99.90
2019-03-08T04:05:36.047Z,99.90
2019-03-08T04:08:05.344Z,99.90
2019-03-08T04:10:34.980Z,99.90
2019-03-08T04:13:04.277Z,99.90
2019-03-08T04:15:33.636Z,99.90
2019-03-08T04:18:03.037Z,99.90
2019-03-08T04:20:32.362Z,99.90
2019-03-08T04:23:01.979Z,99.90
2019-03-08T04:25:32.087Z,99.90
2019-03-08T04:28:01.424Z,99.90
2019-03-08T04:30:30.726Z,99.90
2019-03-08T04:33:00.072Z,99.90
2019-03-08T04:35:29.408Z,99.90
2019-03-08T04:37:58.702Z,99.90
2019-03-08T04:40:28.056Z,99.90
2019-03-08T04:42:57.893Z,99.90
2019-03-08T04:45:27.226Z,99.90
2019-03-08T04:47:56.905Z,99.90
2019-03-08T04:50:26.206Z,99.90
2019-03-08T04:52:55.816Z,99.90
2019-03-08T04:55:25.536Z,99.90
2019-03-08T04:57:54.854Z,99.90
2019-03-08T05:00:24.146Z,99.90
2019-03-08T05:02:53.830Z,99.90
2019-03-08T05:05:23.432Z,99.90
2019-03-08T05:07:52.743Z,99.90
2019-03-08T05:10:22.532Z,99.90
2019-03-08T05:12:51.866Z,99.90
2019-03-08T05:15:21.451Z,99.90
2019-03-08T05:17:50.830Z,99.90
2019-03-08T05:20:20.166Z,99.90
2019-03-08T05:22:49.500Z,99.90
2019-03-08T05:25:19.314Z,99.90
2019-03-08T05:27:48.563Z,99.90
2019-03-08T05:30:18.665Z,99.90
2019-03-08T05:32:48.041Z,99.90
2019-03-08T05:35:17.349Z,99.90
2019-03-08T05:37:46.910Z,99.90
2019-03-08T05:40:17.287Z,99.90
2019-03-08T05:42:46.581Z,99.90
2019-03-08T05:45:16.252Z,99.90
2019-03-08T05:47:47.176Z,99.90
2019-03-08T05:50:16.809Z,99.90
2019-03-08T05:52:46.320Z,99.90
2019-03-08T05:55:15.750Z,99.90
2019-03-08T05:57:45.402Z,99.90
2019-03-08T06:00:19.854Z,99.90
2019-03-08T06:02:49.489Z,99.90
2019-03-08T06:05:22.062Z,99.90
2019-03-08T06:07:51.369Z,99.90
2019-03-08T06:10:30.301Z,99.90
2019-03-08T06:13:02.100Z,99.90
2019-03-08T06:15:31.413Z,99.90
2019-03-08T06:18:01.263Z,99.90
2019-03-08T06:20:30.546Z,99.90
2019-03-08T06:22:59.877Z,99.90
2019-03-08T06:25:29.265Z,99.90
2019-03-08T06:27:58.550Z,99.90
2019-03-08T06:30:28.112Z,99.90
2019-03-08T06:32:57.711Z,99.90
2019-03-08T06:35:27.019Z,99.90
2019-03-08T06:37:56.323Z,99.90
2019-03-08T06:40:25.710Z,99.90
2019-03-08T06:42:55.329Z,99.90
2019-03-08T06:45:24.656Z,99.90
2019-03-08T06:47:54.021Z,99.90
2019-03-08T06:50:23.343Z,99.90
2019-03-08T06:52:52.944Z,99.90
2019-03-08T06:55:22.440Z,99.90
2019-03-08T06:58:01.157Z,99.90
2019-03-08T07:00:34.965Z,99.90
2019-03-08T07:03:06.127Z,99.90
2019-03-08T07:05:35.540Z,99.90
2019-03-08T07:08:05.742Z,99.90
2019-03-08T07:10:35.050Z,99.90
2019-03-08T07:13:04.661Z,99.90
2019-03-08T07:15:33.977Z,99.90
2019-03-08T07:18:12.110Z,99.90
2019-03-08T07:20:36.649Z,99.90
2019-03-08T07:23:13.652Z,99.90
2019-03-08T07:26:00.981Z,99.90
2019-03-08T07:28:48.099Z,99.90
2019-03-08T07:31:20.264Z,99.90
2019-03-08T07:33:54.465Z,99.90
2019-03-08T07:36:41.619Z,99.90
2019-03-08T07:39:34.492Z,99.90
2019-03-08T07:42:08.386Z,99.90
2019-03-08T07:44:48.340Z,99.90
2019-03-08T07:47:25.730Z,99.90
2019-03-08T07:49:59.614Z,99.90
2019-03-08T07:52:36.259Z,99.90
2019-03-08T07:55:10.862Z,99.90
2019-03-08T07:57:41.807Z,99.90
2019-03-08T08:00:20.832Z,99.90
2019-03-08T08:02:51.831Z,99.90
2019-03-08T08:05:32.028Z,99.90
2019-03-08T08:08:09.408Z,99.90
2019-03-08T08:10:41.169Z,99.90
2019-03-08T08:13:15.148Z,99.90
2019-03-08T08:15:57.807Z,99.90
2019-03-08T08:18:37.607Z,99.90
2019-03-08T08:21:14.047Z,99.90
2019-03-08T08:23:47.653Z,99.90
2019-03-08T08:26:24.745Z,99.90
2019-03-08T08:28:56.119Z,99.90
2019-03-08T08:31:27.125Z,99.90
2019-03-08T08:33:58.728Z,99.90
2019-03-08T08:36:35.195Z,99.70
2019-03-08T08:39:14.108Z,99.70
2019-03-08T08:41:48.062Z,99.20
2019-03-08T08:44:19.085Z,99.90
2019-03-08T08:46:56.069Z,99.40
2019-03-08T08:49:33.455Z,99.20
2019-03-08T08:52:20.570Z,99.40
2019-03-08T08:55:10.170Z,98.30
2019-03-08T08:57:41.529Z,98.50
2019-03-08T09:00:32.524Z,99.50
2019-03-08T09:03:12.000Z,98.30
2019-03-08T09:05:42.996Z,97.60
2019-03-08T09:08:17.303Z,98.60
2019-03-08T09:10:51.619Z,97.90
2019-03-08T09:13:39.074Z,98.20
2019-03-08T09:16:15.757Z,97.50
2019-03-08T09:19:02.962Z,97.70
2019-03-08T09:21:33.953Z,97.40
2019-03-08T09:24:05.024Z,97.40
2019-03-08T09:26:42.065Z,97.90
2019-03-08T09:29:29.438Z,97.00
2019-03-08T09:32:12.490Z,96.70
2019-03-08T09:34:44.202Z,97.10
2019-03-08T09:37:20.906Z,96.80
2019-03-08T09:39:57.826Z,96.40
2019-03-08T09:42:37.964Z,96.30
2019-03-08T09:45:12.156Z,95.50
2019-03-08T09:47:43.154Z,95.80
2019-03-08T09:50:19.836Z,95.40
2019-03-08T09:52:59.338Z,95.90
2019-03-08T09:55:36.473Z,95.30
2019-03-08T09:58:14.480Z,95.20
2019-03-08T10:00:45.482Z,96.60
2019-03-08T10:03:19.846Z,96.60
2019-03-08T10:06:05.915Z,96.30
2019-03-08T10:09:01.246Z,95.20
2019-03-08T10:11:35.575Z,96.10
2019-03-08T10:14:15.837Z,96.30
2019-03-08T10:16:55.295Z,95.70
2019-03-08T10:19:28.910Z,95.90
2019-03-08T10:22:11.850Z,95.50
2019-03-08T10:24:57.990Z,96.40
2019-03-08T10:27:37.807Z,95.80
2019-03-08T10:30:01.996Z,95.80
2019-03-08T10:32:51.396Z,94.70
2019-03-08T10:35:39.193Z,95.40
2019-03-08T10:38:22.363Z,94.60
2019-03-08T10:40:50.988Z,94.30
2019-03-08T10:43:21.988Z,94.70
2019-03-08T10:46:01.981Z,94.60
2019-03-08T10:48:41.552Z,94.90
2019-03-08T10:51:27.626Z,91.70
2019-03-08T10:54:15.043Z,92.50
2019-03-08T10:56:46.110Z,92.70
2019-03-08T10:59:17.338Z,92.80
2019-03-08T11:01:57.068Z,90.50
2019-03-08T11:04:28.307Z,90.20
2019-03-08T11:07:05.281Z,90.00
2019-03-08T11:09:54.412Z,90.50
2019-03-08T11:12:41.833Z,91.10
2019-03-08T11:15:24.216Z,90.20
2019-03-08T11:17:51.005Z,88.50
2019-03-08T11:20:36.909Z,90.00
2019-03-08T11:23:24.286Z,90.00
2019-03-08T11:25:58.140Z,88.30
2019-03-08T11:28:40.793Z,86.60
2019-03-08T11:31:27.301Z,85.30
2019-03-08T11:34:14.387Z,84.80
2019-03-08T11:36:45.629Z,82.70
2019-03-08T11:39:35.207Z,81.50
2019-03-08T11:42:20.869Z,84.20
2019-03-08T11:45:00.759Z,84.00
2019-03-08T11:47:48.177Z,85.50
2019-03-08T11:50:31.128Z,85.70
2019-03-08T11:53:02.429Z,85.20
2019-03-08T11:55:49.290Z,84.50
2019-03-08T11:58:36.285Z,85.20
2019-03-08T12:01:26.161Z,86.30
2019-03-08T12:04:05.969Z,87.20
2019-03-08T12:06:49.320Z,85.80
2019-03-08T12:09:25.824Z,84.00
2019-03-08T12:12:13.134Z,84.20
2019-03-08T12:14:50.009Z,81.10
2019-03-08T12:17:29.661Z,80.40
2019-03-08T12:20:00.750Z,80.00
2019-03-08T12:22:47.890Z,82.60
2019-03-08T12:25:18.955Z,83.10
2019-03-08T12:28:01.631Z,83.90
2019-03-08T12:30:35.545Z,83.70
2019-03-08T12:33:22.750Z,81.70
2019-03-08T12:36:04.229Z,84.10
2019-03-08T12:38:35.501Z,82.90
2019-03-08T12:41:12.520Z,85.80
2019-03-08T12:43:59.649Z,84.00
2019-03-08T12:46:33.092Z,84.80
2019-03-08T12:49:10.162Z,81.70
2019-03-08T12:51:57.251Z,79.20
2019-03-08T12:54:44.924Z,80.00
2019-03-08T12:57:18.846Z,80.30
2019-03-08T12:59:50.105Z,79.30
2019-03-08T13:02:37.725Z,80.40
2019-03-08T13:05:12.603Z,82.10
2019-03-08T13:07:43.628Z,81.10
2019-03-08T13:10:13.779Z,83.30
2019-03-08T13:12:43.567Z,82.00
2019-03-08T13:15:16.101Z,81.50
2019-03-08T13:17:45.403Z,81.10
2019-03-08T13:20:19.018Z,81.00
2019-03-08T13:22:48.447Z,79.80
2019-03-08T13:25:18.070Z,80.90
2019-03-08T13:27:47.410Z,80.10
2019-03-08T13:30:21.774Z,81.10
2019-03-08T13:32:51.074Z,82.70
2019-03-08T13:35:20.496Z,81.40
2019-03-08T13:37:49.898Z,83.30
2019-03-08T13:40:19.262Z,82.80
2019-03-08T13:42:48.564Z,80.30
2019-03-08T13:45:23.622Z,77.70
2019-03-08T13:47:52.924Z,80.00
2019-03-08T13:50:22.240Z,79.20
2019-03-08T13:52:51.713Z,78.10
2019-03-08T13:55:21.490Z,77.30
2019-03-08T13:57:50.803Z,74.20
2019-03-08T14:00:21.304Z,75.10
2019-03-08T14:02:50.612Z,74.70
2019-03-08T14:05:20.738Z,74.10
2019-03-08T14:07:50.105Z,76.60
2019-03-08T14:10:22.502Z,76.60
2019-03-08T14:12:51.806Z,76.00
2019-03-08T14:15:21.476Z,76.10
2019-03-08T14:17:53.793Z,77.40
2019-03-08T14:20:28.041Z,78.40
2019-03-08T14:22:57.364Z,77.10
2019-03-08T14:25:27.026Z,73.80
2019-03-08T14:27:56.429Z,74.80
2019-03-08T14:30:32.148Z,75.60
2019-03-08T14:33:01.757Z,72.70
2019-03-08T14:35:32.616Z,72.00
2019-03-08T14:38:01.926Z,68.60
2019-03-08T14:40:49.138Z,69.70
2019-03-08T14:43:36.298Z,69.70
2019-03-08T14:46:07.309Z,71.10
2019-03-08T14:48:36.889Z,72.70
2019-03-08T14:51:09.434Z,74.30
2019-03-08T14:53:37.652Z,74.70
2019-03-08T14:56:07.352Z,76.10
2019-03-08T14:58:40.214Z,75.40
2019-03-08T15:01:08.705Z,75.30
2019-03-08T15:03:43.329Z,75.90
2019-03-08T15:06:09.693Z,76.00
2019-03-08T15:08:39.104Z,74.30
2019-03-08T15:11:09.137Z,74.60
2019-03-08T15:13:38.443Z,74.40
2019-03-08T15:16:10.575Z,74.80
2019-03-08T15:18:39.882Z,74.80
2019-03-08T15:21:09.507Z,75.30
2019-03-08T15:23:38.859Z,75.20
2019-03-08T15:26:08.202Z,75.80
2019-03-08T15:28:37.544Z,75.80
2019-03-08T15:31:06.935Z,73.60
2019-03-08T15:33:36.244Z,73.10
2019-03-08T15:36:05.603Z,73.90
2019-03-08T15:38:34.987Z,72.90
2019-03-08T15:41:04.505Z,73.50
2019-03-08T15:43:33.823Z,73.00
2019-03-08T15:46:03.206Z,73.40
2019-03-08T15:48:32.827Z,74.00
2019-03-08T15:51:02.223Z,73.40
2019-03-08T15:53:31.638Z,74.10
2019-03-08T15:56:00.997Z,75.00
2019-03-08T15:58:30.308Z,76.10
2019-03-08T16:00:59.662Z,77.40
2019-03-08T16:03:30.032Z,75.90
2019-03-08T16:06:02.941Z,77.70
2019-03-08T16:08:31.713Z,76.70
2019-03-08T16:11:01.311Z,77.90
2019-03-08T16:13:30.804Z,77.80
2019-03-08T16:16:00.761Z,78.70
2019-03-08T16:18:30.101Z,78.50
2019-03-08T16:20:59.437Z,79.10
2019-03-08T16:23:28.836Z,78.30
2019-03-08T16:25:58.633Z,79.00
2019-03-08T16:28:27.977Z,79.40
2019-03-08T16:31:05.227Z,78.70
2019-03-08T16:33:38.905Z,78.30
2019-03-08T16:36:22.790Z,79.30
2019-03-08T16:38:55.825Z,79.70
2019-03-08T16:41:29.461Z,79.40
2019-03-08T16:44:03.185Z,80.20
2019-03-08T16:46:39.627Z,79.70
2019-03-08T16:49:25.202Z,79.80
2019-03-08T16:52:11.253Z,80.20
2019-03-08T16:54:45.210Z,80.70
2019-03-08T16:57:16.213Z,81.40
2019-03-08T16:59:49.958Z,80.70
2019-03-08T17:02:27.155Z,81.00
2019-03-08T17:05:16.109Z,80.30
2019-03-08T17:07:53.211Z,81.20
2019-03-08T17:10:27.410Z,81.50
2019-03-08T17:13:04.381Z,82.30
2019-03-08T17:15:35.340Z,81.30
2019-03-08T17:18:09.315Z,82.00
2019-03-08T17:20:46.523Z,83.50
2019-03-08T17:23:26.331Z,86.30
2019-03-08T17:26:02.713Z,87.90
2019-03-08T17:28:33.955Z,89.00
2019-03-08T17:31:07.589Z,89.60
2019-03-08T17:33:41.785Z,90.10
2019-03-08T17:36:30.807Z,90.30
2019-03-08T17:39:02.118Z,90.90
2019-03-08T17:41:49.423Z,91.40
2019-03-08T17:44:26.446Z,91.60
2019-03-08T17:47:09.408Z,92.10
2019-03-08T17:49:49.292Z,92.50
2019-03-08T17:52:20.537Z,92.70
2019-03-08T17:54:51.472Z,93.00
2019-03-08T17:57:25.494Z,93.10
2019-03-08T18:00:08.668Z,93.30
2019-03-08T18:02:39.908Z,93.80
2019-03-08T18:05:10.853Z,94.10
2019-03-08T18:07:50.529Z,94.10
2019-03-08T18:10:38.044Z,94.20
2019-03-08T18:13:09.066Z,94.50
2019-03-08T18:15:49.062Z,94.90
2019-03-08T18:18:20.242Z,95.00
2019-03-08T18:20:53.885Z,95.30
2019-03-08T18:23:27.413Z,95.40
2019-03-08T18:25:58.394Z,95.60
2019-03-08T18:28:45.959Z,95.60
2019-03-08T18:31:17.197Z,95.80
2019-03-08T18:33:48.464Z,95.90
2019-03-08T18:36:25.313Z,95.80
2019-03-08T18:39:14.483Z,96.10
2019-03-08T18:41:48.652Z,96.30
2019-03-08T18:44:19.991Z,96.40
2019-03-08T18:47:02.773Z,96.70
2019-03-08T18:49:42.797Z,96.80
2019-03-08T18:52:14.185Z,96.90
2019-03-08T18:54:54.005Z,97.00
2019-03-08T18:57:27.908Z,96.80
2019-03-08T19:00:13.951Z,96.90
2019-03-08T19:02:48.041Z,96.90
2019-03-08T19:05:35.450Z,96.90
2019-03-08T19:08:15.388Z,97.00
2019-03-08T19:10:52.448Z,96.90
2019-03-08T19:13:26.346Z,96.90
2019-03-08T19:16:03.483Z,96.90
2019-03-08T19:18:50.772Z,96.70
2019-03-08T19:21:36.775Z,96.70
2019-03-08T19:24:08.143Z,96.70
2019-03-08T19:26:55.600Z,96.50
2019-03-08T19:29:32.511Z,96.60
2019-03-08T19:32:06.228Z,96.50
2019-03-08T19:34:47.671Z,96.30
2019-03-08T19:37:24.892Z,96.30
2019-03-08T19:40:00.491Z,96.30
2019-03-08T19:42:32.061Z,96.20
2019-03-08T19:45:05.733Z,95.90
2019-03-08T19:47:36.742Z,96.00
2019-03-08T19:50:14.634Z,96.10
2019-03-08T19:53:00.876Z,96.20
2019-03-08T19:55:34.963Z,96.20
2019-03-08T19:58:08.570Z,96.20
2019-03-08T20:00:42.452Z,96.20
2019-03-08T20:03:19.505Z,96.30
2019-03-08T20:05:53.141Z,96.40
2019-03-08T20:08:33.318Z,96.30
2019-03-08T20:11:07.335Z,96.40
2019-03-08T20:13:38.412Z,96.40
2019-03-08T20:16:12.240Z,96.10
2019-03-08T20:18:43.265Z,96.10
2019-03-08T20:21:14.251Z,96.20
2019-03-08T20:23:54.349Z,96.10
2019-03-08T20:26:25.413Z,96.00
2019-03-08T20:28:56.847Z,96.30
2019-03-08T20:31:46.285Z,96.30
2019-03-08T20:34:17.725Z,96.10
2019-03-08T20:36:51.381Z,96.00
2019-03-08T20:39:31.364Z,96.10
2019-03-08T20:42:11.387Z,96.20
2019-03-08T20:44:51.613Z,95.90
2019-03-08T20:47:25.338Z,96.00
2019-03-08T20:49:54.902Z,96.00
2019-03-08T20:52:24.329Z,95.80
2019-03-08T20:54:53.638Z,95.80
2019-03-08T20:57:22.942Z,95.70
2019-03-08T20:59:52.815Z,95.50
2019-03-08T21:02:22.532Z,95.40
2019-03-08T21:04:51.890Z,95.50
2019-03-08T21:07:21.242Z,95.40
2019-03-08T21:09:50.820Z,95.40
2019-03-08T21:12:20.127Z,95.30
2019-03-08T21:14:49.481Z,95.40
2019-03-08T21:17:19.536Z,95.30
2019-03-08T21:19:48.851Z,95.20
2019-03-08T21:22:18.202Z,95.00
2019-03-08T21:24:47.500Z,95.10
2019-03-08T21:27:16.802Z,95.00
2019-03-08T21:29:46.517Z,94.90
2019-03-08T21:32:15.836Z,94.90
2019-03-08T21:34:45.461Z,94.80
2019-03-08T21:37:15.186Z,94.50
2019-03-08T21:39:44.549Z,94.40
2019-03-08T21:42:14.183Z,94.50
2019-03-08T21:44:44.003Z,94.10
2019-03-08T21:47:13.347Z,94.40
2019-03-08T21:49:43.005Z,93.60
2019-03-08T21:52:12.415Z,93.50
2019-03-08T21:54:41.685Z,93.80
2019-03-08T21:57:11.019Z,93.10
2019-03-08T21:59:40.374Z,93.20
2019-03-08T22:02:09.687Z,93.30
2019-03-08T22:04:43.529Z,94.30
2019-03-08T22:07:13.238Z,94.70
2019-03-08T22:09:44.192Z,95.60
2019-03-08T22:12:13.545Z,96.30
2019-03-08T22:14:43.011Z,95.80
2019-03-08T22:17:12.327Z,95.50
2019-03-08T22:19:42.074Z,96.20
2019-03-08T22:22:11.431Z,95.60
2019-03-08T22:24:40.979Z,95.70
2019-03-08T22:27:10.295Z,95.40
2019-03-08T22:29:39.642Z,95.50
2019-03-08T22:32:08.947Z,95.20
2019-03-08T22:34:38.240Z,95.40
2019-03-08T22:37:09.725Z,95.50
2019-03-08T22:39:39.343Z,95.10
2019-03-08T22:42:08.679Z,95.10
2019-03-08T22:44:38.027Z,94.70
2019-03-08T22:47:07.336Z,94.90
2019-03-08T22:49:36.639Z,94.80
2019-03-08T22:52:06.008Z,94.80
2019-03-08T22:54:38.271Z,94.70
2019-03-08T22:57:07.850Z,95.40
2019-03-08T22:59:37.248Z,95.80
2019-03-08T23:02:08.849Z,95.70
2019-03-08T23:04:38.484Z,96.30
2019-03-08T23:07:08.102Z,95.80
2019-03-08T23:09:37.778Z,96.10
2019-03-08T23:12:07.084Z,96.40
2019-03-08T23:14:36.735Z,96.10
2019-03-08T23:17:06.118Z,96.00
2019-03-08T23:19:35.947Z,96.40
2019-03-08T23:22:05.784Z,95.80
2019-03-08T23:24:35.115Z,95.80
2019-03-08T23:27:24.278Z,96.10
2019-03-08T23:29:55.251Z,95.30
2019-03-08T23:32:26.256Z,95.40
2019-03-08T23:34:55.640Z,95.30
2019-03-08T23:37:24.936Z,95.40
2019-03-08T23:39:54.231Z,95.50
2019-03-08T23:42:23.915Z,94.90
2019-03-08T23:44:53.521Z,95.10
2019-03-08T23:47:22.832Z,94.60
2019-03-08T23:49:52.189Z,94.60
2019-03-08T23:52:21.857Z,94.30
2019-03-08T23:54:51.194Z,94.10
2019-03-08T23:57:20.836Z,94.20
2019-03-08T23:59:50.147Z,94.30
